Time;durP1;ratioP1;P1;durP2;ratioP2;P2;SDS_P1;SDS_P2;PMS_P1;PMS_P2;Temp;Humidity;BMP_temperature;BMP_pressure;BME280_temperature;BME280_humidity;BME280_pressure;Samples;Min_cycle;Max_cycle;Signal;HPM_P1;HPM_P2
2021/11/23 00:02:24;;;;;;;4.40;1.35;;;6.50;99.90;;;;;;5047001;28;20021;-75
2021/11/23 00:04:51;;;;;;;3.38;1.58;;;6.40;99.90;;;;;;5048332;28;20090;-75
2021/11/23 00:07:17;;;;;;;6.00;2.42;;;6.60;99.90;;;;;;5048022;28;20025;-75
2021/11/23 00:09:42;;;;;;;2.70;1.45;;;6.60;99.90;;;;;;5047957;28;20025;-77
2021/11/23 00:12:08;;;;;;;22.92;2.25;;;6.60;99.90;;;;;;5046659;28;20029;-76
2021/11/23 00:14:34;;;;;;;2.42;1.33;;;6.60;99.90;;;;;;5047901;28;20048;-77
2021/11/23 00:17:00;;;;;;;3.28;1.77;;;6.70;99.90;;;;;;5047502;28;20490;-77
2021/11/23 00:19:26;;;;;;;8.98;2.42;;;6.50;99.90;;;;;;5046763;28;20060;-76
2021/11/23 00:21:52;;;;;;;2.83;1.45;;;6.60;99.90;;;;;;5047905;28;20021;-76
2021/11/23 00:24:17;;;;;;;6.22;2.47;;;6.50;99.90;;;;;;5033257;28;20510;-80
2021/11/23 00:26:43;;;;;;;2.55;1.25;;;6.30;99.90;;;;;;5046643;28;20088;-75
2021/11/23 00:29:09;;;;;;;4.43;1.75;;;6.40;99.90;;;;;;5046530;28;20026;-78
2021/11/23 00:31:34;;;;;;;7.70;1.85;;;6.30;99.90;;;;;;5046465;28;20021;-76
2021/11/23 00:34:01;;;;;;;4.88;1.75;;;6.30;99.90;;;;;;5046278;28;20021;-77
2021/11/23 00:36:28;;;;;;;2.72;1.23;;;6.30;99.90;;;;;;5046253;28;20045;-76
2021/11/23 00:38:54;;;;;;;3.85;1.65;;;6.30;99.90;;;;;;5047774;28;20022;-74
2021/11/23 00:41:20;;;;;;;3.17;1.77;;;6.30;99.90;;;;;;5046221;28;20476;-73
2021/11/23 00:43:46;;;;;;;4.00;2.05;;;6.30;99.90;;;;;;5047396;28;20029;-75
2021/11/23 00:46:12;;;;;;;10.25;1.75;;;6.30;99.90;;;;;;5047506;28;20032;-79
2021/11/23 00:48:38;;;;;;;4.35;1.80;;;6.40;99.90;;;;;;5047425;28;20493;-76
2021/11/23 00:51:05;;;;;;;4.50;1.75;;;6.30;99.90;;;;;;5047438;28;20026;-77
2021/11/23 00:53:33;;;;;;;4.50;1.80;;;6.30;99.90;;;;;;5047190;28;20395;-78
2021/11/23 00:56:01;;;;;;;4.43;1.95;;;6.30;99.90;;;;;;5047425;28;20097;-78
2021/11/23 00:58:27;;;;;;;18.60;3.75;;;6.30;99.90;;;;;;5046098;28;20075;-75
2021/11/23 01:00:53;;;;;;;5.72;2.58;;;6.40;99.90;;;;;;5045995;28;20030;-77
2021/11/23 01:03:19;;;;;;;5.60;2.42;;;6.40;99.90;;;;;;5045581;28;20499;-75
2021/11/23 01:05:46;;;;;;;5.63;2.63;;;6.40;99.90;;;;;;5045096;28;20030;-76
2021/11/23 01:08:16;;;;;;;5.75;2.95;;;6.40;99.90;;;;;;5046793;28;20025;-76
2021/11/23 01:10:42;;;;;;;5.10;2.50;;;6.40;99.90;;;;;;5045694;28;20030;-76
2021/11/23 01:13:08;;;;;;;4.97;2.47;;;6.50;99.90;;;;;;5046973;28;20092;-75
2021/11/23 01:15:34;;;;;;;6.68;3.25;;;6.50;99.90;;;;;;5045554;28;20129;-75
2021/11/23 01:18:02;;;;;;;7.32;3.65;;;6.50;99.90;;;;;;5046999;28;20022;-75
2021/11/23 01:20:29;;;;;;;4.75;2.88;;;6.50;99.90;;;;;;5045803;28;20099;-75
2021/11/23 01:22:54;;;;;;;9.50;2.80;;;6.50;99.90;;;;;;5045655;28;20056;-75
2021/11/23 01:25:20;;;;;;;7.68;3.42;;;6.50;99.90;;;;;;5045424;28;20049;-75
2021/11/23 01:27:46;;;;;;;6.15;3.05;;;6.50;99.90;;;;;;5045117;28;20036;-74
2021/11/23 01:30:13;;;;;;;6.28;3.08;;;6.50;99.90;;;;;;5046690;28;20393;-74
2021/11/23 01:32:40;;;;;;;5.75;2.53;;;6.60;99.90;;;;;;5046362;28;20478;-74
2021/11/23 01:35:08;;;;;;;8.88;4.15;;;6.50;99.90;;;;;;5046347;28;20052;-76
2021/11/23 01:37:34;;;;;;;5.07;2.55;;;6.50;99.90;;;;;;5045062;28;20461;-76
2021/11/23 01:40:02;;;;;;;5.07;2.45;;;6.50;99.90;;;;;;5045226;28;20040;-74
2021/11/23 01:42:28;;;;;;;6.00;3.17;;;6.60;99.90;;;;;;5046430;28;20030;-75
2021/11/23 01:44:54;;;;;;;8.30;3.05;;;6.60;99.90;;;;;;5046642;28;20025;-76
2021/11/23 01:47:19;;;;;;;8.13;3.13;;;6.60;99.90;;;;;;5044821;28;20056;-74
2021/11/23 01:49:45;;;;;;;11.98;3.20;;;6.70;99.90;;;;;;5045029;28;20059;-76
2021/11/23 01:52:11;;;;;;;7.03;3.20;;;6.60;99.90;;;;;;5044934;28;20466;-74
2021/11/23 01:54:37;;;;;;;9.50;3.20;;;6.60;99.90;;;;;;5046270;28;20537;-77
2021/11/23 01:57:03;;;;;;;7.95;3.53;;;6.70;99.90;;;;;;5046080;28;20487;-75
2021/11/23 01:59:29;;;;;;;7.97;3.97;;;6.70;99.90;;;;;;5044984;28;20029;-75
2021/11/23 02:01:54;;;;;;;6.25;3.42;;;6.70;99.90;;;;;;5044713;28;20149;-75
2021/11/23 02:04:20;;;;;;;10.48;2.83;;;6.70;99.90;;;;;;5044721;28;20390;-73
2021/11/23 02:06:46;;;;;;;12.27;2.90;;;6.60;99.90;;;;;;5045789;28;20044;-74
2021/11/23 02:09:11;;;;;;;10.00;3.47;;;6.80;99.90;;;;;;5046175;28;20036;-76
2021/11/23 02:11:37;;;;;;;6.82;3.78;;;6.80;99.90;;;;;;5044483;28;20021;-75
2021/11/23 02:14:04;;;;;;;15.90;4.38;;;6.80;99.90;;;;;;5045877;28;20029;-75
2021/11/23 02:16:33;;;;;;;6.57;3.25;;;6.80;99.90;;;;;;5046055;28;20120;-76
2021/11/23 02:19:00;;;;;;;13.77;3.72;;;6.70;99.90;;;;;;5043810;28;20029;-78
2021/11/23 02:21:26;;;;;;;12.88;3.47;;;6.80;99.90;;;;;;5044465;28;20029;-74
2021/11/23 02:23:52;;;;;;;5.45;3.08;;;6.80;99.90;;;;;;5045606;28;20037;-75
2021/11/23 02:26:18;;;;;;;18.63;4.28;;;6.80;99.90;;;;;;5045443;28;20033;-75
2021/11/23 02:28:51;;;;;;;6.70;3.45;;;6.80;99.90;;;;;;5044257;28;20029;-76
2021/11/23 02:31:17;;;;;;;7.40;3.43;;;6.80;99.90;;;;;;5045515;28;20022;-73
2021/11/23 02:33:42;;;;;;;7.88;3.42;;;6.80;99.90;;;;;;5045232;28;20037;-74
2021/11/23 02:36:10;;;;;;;11.98;3.83;;;6.90;99.90;;;;;;5045143;28;20107;-75
2021/11/23 02:38:38;;;;;;;8.00;4.00;;;6.90;99.90;;;;;;5045200;28;20071;-76
2021/11/23 02:41:07;;;;;;;17.58;4.18;;;6.90;99.90;;;;;;5045241;28;20026;-78
2021/11/23 02:43:34;;;;;;;10.00;4.43;;;6.90;99.90;;;;;;5045196;28;20021;-75
2021/11/23 02:46:01;;;;;;;7.72;3.80;;;6.90;99.90;;;;;;5045326;28;20029;-76
2021/11/23 02:48:30;;;;;;;10.82;4.22;;;7.00;99.90;;;;;;5045439;28;20029;-75
2021/11/23 02:51:14;;;;;;;8.00;3.75;;;7.00;99.90;;;;;;5045359;28;20030;-74
2021/11/23 02:53:40;;;;;;;;;;;7.00;99.90;;;;;;5044294;28;20466;-75
2021/11/23 02:56:06;;;;;;;15.43;3.95;;;7.00;99.90;;;;;;5045103;28;19917;-74
2021/11/23 02:58:33;;;;;;;9.02;3.75;;;7.00;99.90;;;;;;5043509;28;20029;-76
2021/11/23 03:01:05;;;;;;;10.18;3.58;;;7.10;99.90;;;;;;5045091;28;20367;-76
2021/11/23 03:03:31;;;;;;;14.05;4.22;;;7.10;99.90;;;;;;5044999;28;20097;-76
2021/11/23 03:05:58;;;;;;;7.80;3.92;;;7.10;99.90;;;;;;5043645;28;20026;-74
2021/11/23 03:08:24;;;;;;;12.90;4.43;;;7.10;99.90;;;;;;5044780;28;20033;-74
2021/11/23 03:10:50;;;;;;;21.02;4.80;;;7.10;99.90;;;;;;5038564;28;20487;-74
2021/11/23 03:13:22;;;;;;;10.35;4.22;;;7.10;99.90;;;;;;5025171;28;20026;-75
2021/11/23 03:15:48;;;;;;;14.57;3.95;;;7.10;99.90;;;;;;5024895;28;20037;-74
2021/11/23 03:18:13;;;;;;;18.98;5.18;;;7.20;99.90;;;;;;5024795;28;20032;-73
2021/11/23 03:20:39;;;;;;;13.27;5.25;;;7.20;99.90;;;;;;5025122;28;20030;-75
2021/11/23 03:23:06;;;;;;;9.00;4.57;;;7.20;99.90;;;;;;5024715;28;20033;-75
2021/11/23 03:25:32;;;;;;;8.45;3.95;;;7.20;99.90;;;;;;5024863;28;20041;-75
2021/11/23 03:27:59;;;;;;;13.18;4.55;;;7.20;99.90;;;;;;5025219;28;20025;-76
2021/11/23 03:30:31;;;;;;;8.40;3.20;;;7.30;99.90;;;;;;5024698;28;20033;-76
2021/11/23 03:32:58;;;;;;;14.77;4.00;;;7.20;99.90;;;;;;5023699;28;20125;-75
2021/11/23 03:35:27;;;;;;;7.75;3.55;;;7.20;99.90;;;;;;5024664;28;20050;-75
2021/11/23 03:37:53;;;;;;;10.50;4.53;;;7.30;99.90;;;;;;5024907;28;20049;-75
2021/11/23 03:40:25;;;;;;;17.60;4.65;;;7.20;99.90;;;;;;5024676;28;20022;-74
2021/11/23 03:42:51;;;;;;;6.78;3.60;;;7.30;99.90;;;;;;5023313;28;20061;-74
2021/11/23 03:45:21;;;;;;;10.27;3.20;;;7.30;99.90;;;;;;5024609;28;20026;-76
2021/11/23 03:47:47;;;;;;;8.88;3.42;;;7.30;99.90;;;;;;5023279;28;20058;-76
2021/11/23 03:50:15;;;;;;;14.43;4.90;;;7.30;99.90;;;;;;5024621;28;20113;-75
2021/11/23 03:52:41;;;;;;;5.75;2.88;;;7.30;99.90;;;;;;5023204;28;20030;-76
2021/11/23 03:55:09;;;;;;;8.05;3.75;;;7.30;99.90;;;;;;5023077;28;20040;-77
2021/11/23 03:57:42;;;;;;;9.57;3.63;;;7.30;99.90;;;;;;5024415;28;20148;-78
2021/11/23 04:00:08;;;;;;;7.22;3.83;;;7.30;99.90;;;;;;5023342;28;20101;-76
2021/11/23 04:02:34;;;;;;;12.07;3.88;;;7.30;99.90;;;;;;5024724;28;20569;-76
2021/11/23 04:05:00;;;;;;;6.47;3.10;;;7.40;99.90;;;;;;5023275;28;20129;-75
2021/11/23 04:07:25;;;;;;;9.85;4.63;;;7.30;99.90;;;;;;5024809;28;21108;-76
2021/11/23 04:10:00;;;;;;;7.97;3.58;;;7.30;99.90;;;;;;5023127;28;20048;-77
2021/11/23 04:12:30;;;;;;;9.85;3.63;;;7.40;99.90;;;;;;5024617;28;20022;-76
2021/11/23 04:14:56;;;;;;;8.48;3.97;;;7.40;99.90;;;;;;5024699;28;20391;-75
2021/11/23 04:17:21;;;;;;;11.43;3.97;;;7.40;99.90;;;;;;5024314;28;20042;-75
2021/11/23 04:19:49;;;;;;;12.25;4.40;;;7.40;99.90;;;;;;5024234;28;20030;-75
2021/11/23 04:22:15;;;;;;;10.13;4.43;;;7.40;99.90;;;;;;5024130;28;20071;-75
2021/11/23 04:24:41;;;;;;;10.68;4.05;;;7.40;99.90;;;;;;5024159;28;20061;-74
2021/11/23 04:27:17;;;;;;;9.30;4.00;;;7.40;99.90;;;;;;5024244;28;20934;-77
2021/11/23 04:29:43;;;;;;;11.50;3.92;;;7.40;99.90;;;;;;5024285;28;20026;-74
2021/11/23 04:32:08;;;;;;;8.52;3.60;;;7.40;99.90;;;;;;5024189;28;20022;-76
2021/11/23 04:34:34;;;;;;;12.15;3.90;;;7.40;99.90;;;;;;5024191;28;20054;-75
2021/11/23 04:37:00;;;;;;;11.02;4.13;;;7.40;99.90;;;;;;5024085;28;20042;-76
2021/11/23 04:39:25;;;;;;;6.88;3.17;;;7.40;99.90;;;;;;5024381;28;20041;-77
2021/11/23 04:41:51;;;;;;;5.38;2.78;;;7.40;99.90;;;;;;5026028;28;20022;-75
2021/11/23 04:44:16;;;;;;;7.55;3.65;;;7.40;99.90;;;;;;5027560;28;20026;-75
2021/11/23 04:46:42;;;;;;;10.05;4.10;;;7.30;99.90;;;;;;5027565;28;20030;-76
2021/11/23 04:49:08;;;;;;;10.10;4.53;;;7.40;99.90;;;;;;5027568;28;20032;-77
2021/11/23 04:51:34;;;;;;;6.75;3.47;;;7.30;99.90;;;;;;5026274;28;20033;-75
2021/11/23 04:54:01;;;;;;;8.57;3.35;;;7.30;99.90;;;;;;5026198;28;20026;-74
2021/11/23 04:56:26;;;;;;;15.55;3.97;;;7.30;99.90;;;;;;5026314;28;20037;-73
2021/11/23 04:58:52;;;;;;;8.18;4.63;;;7.30;99.90;;;;;;5025941;28;20037;-75
2021/11/23 05:01:18;;;;;;;11.25;3.90;;;7.30;99.90;;;;;;5026078;28;20076;-76
2021/11/23 05:03:43;;;;;;;6.75;3.38;;;7.30;99.90;;;;;;5025774;28;20085;-75
2021/11/23 05:06:09;;;;;;;10.02;3.35;;;7.30;99.90;;;;;;5027264;28;20076;-76
2021/11/23 05:08:36;;;;;;;7.63;3.35;;;7.30;99.90;;;;;;5027081;28;20048;-74
2021/11/23 05:11:02;;;;;;;15.88;4.00;;;7.30;99.90;;;;;;5027140;28;20693;-76
2021/11/23 05:13:29;;;;;;;8.05;3.13;;;7.20;99.90;;;;;;5026027;28;20025;-77
2021/11/23 05:15:54;;;;;;;6.40;2.88;;;7.20;99.90;;;;;;5027136;28;20483;-75
2021/11/23 05:18:20;;;;;;;10.07;3.65;;;7.20;99.90;;;;;;5025559;28;20053;-77
2021/11/23 05:20:46;;;;;;;8.48;3.17;;;7.30;99.90;;;;;;5027091;28;20045;-78
2021/11/23 05:23:11;;;;;;;10.52;3.78;;;7.30;99.90;;;;;;5026748;28;20435;-77
2021/11/23 05:25:37;;;;;;;8.52;3.60;;;7.30;99.90;;;;;;5025709;28;20030;-76
2021/11/23 05:28:03;;;;;;;7.88;3.28;;;7.30;99.90;;;;;;5025539;28;20033;-77
2021/11/23 05:30:29;;;;;;;8.30;3.28;;;7.30;99.90;;;;;;5025607;28;20029;-78
2021/11/23 05:32:54;;;;;;;11.23;4.25;;;7.30;99.90;;;;;;5026726;28;20036;-76
2021/11/23 05:35:20;;;;;;;14.50;2.88;;;7.30;99.90;;;;;;5025062;28;20054;-76
2021/11/23 05:37:45;;;;;;;6.75;3.22;;;7.30;99.90;;;;;;5026556;28;20052;-75
2021/11/23 05:40:12;;;;;;;8.45;3.58;;;7.30;99.90;;;;;;5025179;28;20037;-74
2021/11/23 05:42:53;;;;;;;9.32;3.47;;;7.30;99.90;;;;;;5026569;28;20026;-76
2021/11/23 05:45:18;;;;;;;10.48;3.72;;;7.30;99.90;;;;;;5026570;28;20081;-75
2021/11/23 05:47:44;;;;;;;8.55;4.57;;;7.30;99.90;;;;;;5026400;28;20032;-72
2021/11/23 05:50:10;;;;;;;8.25;3.45;;;7.30;99.90;;;;;;5026350;28;20029;-75
2021/11/23 05:52:35;;;;;;;13.80;4.20;;;7.30;99.90;;;;;;5026192;28;20033;-75
2021/11/23 05:55:03;;;;;;;11.30;3.45;;;7.30;99.90;;;;;;5026341;28;20046;-74
2021/11/23 05:57:28;;;;;;;10.05;3.42;;;7.30;99.90;;;;;;5026427;28;20072;-76
2021/11/23 05:59:54;;;;;;;16.42;2.85;;;7.30;99.90;;;;;;5024892;28;20026;-74
2021/11/23 06:02:20;;;;;;;12.13;3.75;;;7.30;99.90;;;;;;5024935;28;20486;-75
2021/11/23 06:04:45;;;;;;;6.93;3.33;;;7.30;99.90;;;;;;5026280;28;20041;-76
2021/11/23 06:07:11;;;;;;;11.05;3.85;;;7.30;99.90;;;;;;5026041;28;20037;-75
2021/11/23 06:09:36;;;;;;;8.10;3.30;;;7.30;99.90;;;;;;5025880;28;20038;-72
2021/11/23 06:12:03;;;;;;;6.38;2.75;;;7.30;99.90;;;;;;5035330;28;20029;-75
2021/11/23 06:14:30;;;;;;;7.30;3.63;;;7.30;99.90;;;;;;5026286;28;20018;-76
2021/11/23 06:16:56;;;;;;;11.75;4.30;;;7.30;99.90;;;;;;5025933;28;20486;-76
2021/11/23 06:19:22;;;;;;;15.52;3.30;;;7.30;99.90;;;;;;5024669;28;20053;-74
2021/11/23 06:21:47;;;;;;;7.20;2.53;;;7.30;99.90;;;;;;5024467;28;20041;-76
2021/11/23 06:24:22;;;;;;;13.82;4.55;;;7.30;99.90;;;;;;5026070;28;20058;-76
2021/11/23 06:26:48;;;;;;;7.85;2.22;;;7.30;99.90;;;;;;5025817;28;20033;-75
2021/11/23 06:29:14;;;;;;;5.90;2.67;;;7.30;99.90;;;;;;5024549;28;20084;-74
2021/11/23 06:31:40;;;;;;;7.05;2.85;;;7.30;99.90;;;;;;5024225;28;20026;-76
2021/11/23 06:34:15;;;;;;;26.00;7.30;;;7.30;99.90;;;;;;5025194;28;20033;-77
2021/11/23 06:36:40;;;;;;;8.45;3.10;;;7.30;99.90;;;;;;5025601;28;20030;-76
2021/11/23 06:39:07;;;;;;;6.55;2.50;;;7.30;99.90;;;;;;5025461;28;20041;-77
2021/11/23 06:41:32;;;;;;;8.27;2.72;;;7.40;99.90;;;;;;5025671;28;20022;-74
2021/11/23 06:44:02;;;;;;;5.82;3.03;;;7.40;99.90;;;;;;5024252;28;20037;-77
2021/11/23 06:46:30;;;;;;;9.60;2.80;;;7.40;99.90;;;;;;5024281;28;20026;-76
2021/11/23 06:48:56;;;;;;;4.70;2.08;;;7.40;99.90;;;;;;5025516;28;20088;-75
2021/11/23 06:51:22;;;;;;;5.47;2.15;;;7.40;99.90;;;;;;5025108;28;20022;-76
2021/11/23 06:53:48;;;;;;;10.30;3.53;;;7.40;99.90;;;;;;5023559;28;20097;-75
2021/11/23 06:56:15;;;;;;;6.65;2.97;;;7.50;99.90;;;;;;5023856;28;20061;-77
2021/11/23 06:58:44;;;;;;;10.80;3.17;;;7.40;99.90;;;;;;5025067;28;20026;-75
2021/11/23 07:01:09;;;;;;;7.22;2.55;;;7.40;99.90;;;;;;5029040;28;20021;-73
2021/11/23 07:03:35;;;;;;;7.40;1.95;;;7.40;99.90;;;;;;5031614;28;20036;-74
2021/11/23 07:06:08;;;;;;;4.35;2.05;;;7.40;99.90;;;;;;5039412;28;20026;-74
2021/11/23 07:08:34;;;;;;;12.25;3.33;;;7.40;99.90;;;;;;5042268;28;20048;-73
2021/11/23 07:11:00;;;;;;;4.60;2.20;;;7.50;99.90;;;;;;5033025;28;20061;-75
2021/11/23 07:13:26;;;;;;;4.50;2.58;;;7.50;99.90;;;;;;5033136;28;20038;-73
2021/11/23 07:15:52;;;;;;;7.25;2.65;;;7.50;99.90;;;;;;5035010;28;20083;-74
2021/11/23 07:18:18;;;;;;;9.40;2.95;;;7.50;99.90;;;;;;5031710;28;20025;-74
2021/11/23 07:20:45;;;;;;;6.32;1.92;;;7.50;99.90;;;;;;5035226;28;20036;-72
2021/11/23 07:23:13;;;;;;;9.10;1.85;;;7.50;99.90;;;;;;5033169;28;20042;-75
2021/11/23 07:25:38;;;;;;;7.38;2.00;;;7.50;99.90;;;;;;5031207;28;20016;-75
2021/11/23 07:28:05;;;;;;;7.97;2.22;;;7.50;99.90;;;;;;5024954;28;20479;-75
2021/11/23 07:30:37;;;;;;;3.97;1.83;;;7.50;99.90;;;;;;5025206;28;20061;-75
2021/11/23 07:33:04;;;;;;;5.43;2.22;;;7.50;99.90;;;;;;5039036;28;21910;-74
2021/11/23 07:35:30;;;;;;;7.32;2.00;;;7.50;99.90;;;;;;5039478;28;20045;-74
2021/11/23 07:37:55;;;;;;;4.15;2.20;;;7.50;99.90;;;;;;5037867;28;20034;-74
2021/11/23 07:40:22;;;;;;;11.20;2.15;;;7.50;99.90;;;;;;5040625;28;20037;-75
2021/11/23 07:42:48;;;;;;;8.15;2.38;;;7.50;99.90;;;;;;5052491;28;20028;-74
2021/11/23 07:45:13;;;;;;;7.03;1.98;;;7.50;99.90;;;;;;5042826;28;20029;-73
2021/11/23 07:47:42;;;;;;;4.18;2.17;;;7.50;99.90;;;;;;5044530;28;20029;-76
2021/11/23 07:50:08;;;;;;;4.15;2.67;;;7.50;99.90;;;;;;5044573;28;20124;-74
2021/11/23 07:52:34;;;;;;;6.65;1.38;;;7.50;99.90;;;;;;5044581;28;20026;-75
2021/11/23 07:55:03;;;;;;;3.75;2.22;;;7.50;99.90;;;;;;5042005;28;20030;-76
2021/11/23 07:57:31;;;;;;;3.70;2.25;;;7.60;99.90;;;;;;5022977;28;20046;-76
2021/11/23 07:59:56;;;;;;;3.75;1.80;;;7.60;99.90;;;;;;5045880;28;20037;-73
2021/11/23 08:02:22;;;;;;;18.35;1.75;;;7.60;99.90;;;;;;5034922;28;20112;-75
2021/11/23 08:04:47;;;;;;;5.10;2.00;;;7.60;99.90;;;;;;5036368;28;20029;-73
2021/11/23 08:07:13;;;;;;;6.70;1.42;;;7.60;99.90;;;;;;5043252;28;20029;-73
2021/11/23 08:09:39;;;;;;;5.35;2.00;;;7.60;99.90;;;;;;5033572;28;20061;-73
2021/11/23 08:12:05;;;;;;;4.43;2.08;;;7.70;99.90;;;;;;5024255;28;20026;-74
2021/11/23 08:14:31;;;;;;;11.35;1.90;;;7.80;99.90;;;;;;5030480;28;20034;-74
2021/11/23 08:17:00;;;;;;;4.95;1.55;;;7.90;99.90;;;;;;5046851;28;20045;-75
2021/11/23 08:19:29;;;;;;;3.65;1.55;;;7.90;99.90;;;;;;5048583;28;20072;-74
2021/11/23 08:21:55;;;;;;;6.80;1.33;;;7.90;99.90;;;;;;5034895;28;20022;-76
2021/11/23 08:24:21;;;;;;;5.13;1.48;;;7.90;99.90;;;;;;5026947;28;20093;-75
2021/11/23 08:27:07;;;;;;;3.35;1.33;;;7.80;99.90;;;;;;5044154;28;20041;-74
2021/11/23 08:29:32;;;;;;;10.07;1.83;;;7.80;99.90;;;;;;5027699;28;20034;-74
2021/11/23 08:31:59;;;;;;;8.55;1.45;;;7.80;99.90;;;;;;5027270;28;20040;-73
2021/11/23 08:34:27;;;;;;;4.22;1.42;;;7.80;99.90;;;;;;5030476;28;20065;-73
2021/11/23 08:36:54;;;;;;;3.45;1.40;;;7.80;99.90;;;;;;5046198;28;20104;-74
2021/11/23 08:39:20;;;;;;;2.67;1.15;;;7.80;99.90;;;;;;5047763;28;20025;-75
2021/11/23 08:41:47;;;;;;;4.10;1.35;;;7.90;99.90;;;;;;5047837;28;20036;-74
2021/11/23 08:44:14;;;;;;;12.15;1.55;;;7.90;99.90;;;;;;5046265;28;20029;-73
2021/11/23 08:46:40;;;;;;;10.32;1.08;;;8.00;99.90;;;;;;5029035;28;20064;-74
2021/11/23 08:49:06;;;;;;;1.42;0.68;;;8.00;99.90;;;;;;5027610;28;20471;-74
2021/11/23 08:51:37;;;;;;;9.95;1.30;;;8.10;99.90;;;;;;5038258;28;20042;-75
2021/11/23 08:54:05;;;;;;;8.60;1.67;;;8.10;99.90;;;;;;5040856;28;20029;-73
2021/11/23 08:56:38;;;;;;;2.83;0.95;;;8.00;99.90;;;;;;5045174;28;20045;-75
2021/11/23 08:59:09;;;;;;;4.40;2.28;;;8.10;99.90;;;;;;5039076;28;20034;-72
2021/11/23 09:01:36;;;;;;;6.15;1.75;;;8.10;99.90;;;;;;5037330;28;20478;-74
2021/11/23 09:04:05;;;;;;;1.10;0.40;;;8.10;99.90;;;;;;5045441;28;20109;-76
2021/11/23 09:06:39;;;;;;;3.13;1.27;;;8.20;99.90;;;;;;5045311;28;20026;-73
2021/11/23 09:09:08;;;;;;;4.60;1.00;;;8.20;99.90;;;;;;5064561;28;20093;-73
2021/11/23 09:11:34;;;;;;;2.95;1.20;;;8.20;99.90;;;;;;5065883;28;20119;-74
2021/11/23 09:14:11;;;;;;;2.63;1.15;;;8.30;99.90;;;;;;5066406;28;20029;-76
2021/11/23 09:16:37;;;;;;;5.60;1.90;;;8.30;99.90;;;;;;5061153;28;20029;-74
2021/11/23 09:19:05;;;;;;;4.53;1.08;;;8.40;99.90;;;;;;5036598;28;20394;-74
2021/11/23 09:21:45;;;;;;;2.28;1.15;;;8.40;99.90;;;;;;5026228;28;20026;-75
2021/11/23 09:24:12;;;;;;;5.20;2.03;;;8.50;99.90;;;;;;5044372;28;20030;-75
2021/11/23 09:26:38;;;;;;;2.20;1.10;;;8.60;99.90;;;;;;5030548;28;20029;-74
2021/11/23 09:29:07;;;;;;;5.32;1.42;;;8.60;99.90;;;;;;5040405;28;20033;-73
2021/11/23 09:31:34;;;;;;;7.68;1.20;;;8.60;99.90;;;;;;5039991;28;20053;-74
2021/11/23 09:34:06;;;;;;;8.13;1.60;;;8.60;99.90;;;;;;5035286;28;20440;-75
2021/11/23 09:36:46;;;;;;;5.95;2.03;;;8.70;99.90;;;;;;5041216;28;20148;-75
2021/11/23 09:39:12;;;;;;;5.40;2.00;;;8.80;99.90;;;;;;5039410;28;20034;-72
2021/11/23 09:41:38;;;;;;;5.32;2.15;;;9.00;99.90;;;;;;5037666;28;20038;-75
2021/11/23 09:44:08;;;;;;;8.98;1.67;;;9.30;99.90;;;;;;5040998;28;20133;-75
2021/11/23 09:46:39;;;;;;;3.75;1.80;;;9.40;99.90;;;;;;5053928;28;20065;-75
2021/11/23 09:49:08;;;;;;;8.90;2.03;;;9.60;99.90;;;;;;5039425;28;20036;-74
2021/11/23 09:51:36;;;;;;;4.70;2.15;;;9.80;99.90;;;;;;5038991;28;20034;-74
2021/11/23 09:54:07;;;;;;;3.13;1.95;;;9.90;99.90;;;;;;5025766;28;20125;-74
2021/11/23 09:56:35;;;;;;;3.95;1.83;;;10.00;99.90;;;;;;5024213;28;20034;-75
2021/11/23 09:59:05;;;;;;;4.15;1.42;;;10.10;99.90;;;;;;5032244;28;20045;-76
2021/11/23 10:01:45;;;;;;;4.15;1.88;;;10.20;99.90;;;;;;5038281;28;20057;-75
2021/11/23 10:04:11;;;;;;;7.40;3.28;;;10.30;99.90;;;;;;5042518;28;20033;-74
2021/11/23 10:07:04;;;;;;;5.38;2.03;;;10.60;99.90;;;;;;5040464;28;20029;-75
2021/11/23 10:09:42;;;;;;;3.10;1.65;;;10.70;99.90;;;;;;5037925;28;20033;-75
2021/11/23 10:12:26;;;;;;;3.67;1.95;;;10.90;99.90;;;;;;5040237;28;20167;-75
2021/11/23 10:15:21;;;;;;;7.22;2.17;;;11.00;99.90;;;;;;5043973;28;20025;-75
2021/11/23 10:17:48;;;;;;;;;;;11.10;99.90;;;;;;5061330;28;20057;-75
2021/11/23 10:20:35;;;;;;;4.78;1.20;;;11.20;99.90;;;;;;5032120;28;19935;-74
2021/11/23 10:23:11;;;;;;;6.85;2.10;;;11.40;99.90;;;;;;5031667;28;20033;-76
2021/11/23 10:25:38;;;;;;;5.38;1.55;;;11.70;99.90;;;;;;5031436;28;20088;-76
2021/11/23 10:28:06;;;;;;;2.67;1.30;;;11.90;99.90;;;;;;5037922;28;20029;-75
2021/11/23 10:30:37;;;;;;;3.50;2.05;;;12.10;99.90;;;;;;5039443;28;20048;-77
2021/11/23 10:33:06;;;;;;;3.83;1.65;;;12.10;99.90;;;;;;5050503;28;20049;-75
2021/11/23 10:35:32;;;;;;;2.90;1.38;;;12.00;99.90;;;;;;5045515;28;20111;-75
2021/11/23 10:37:59;;;;;;;10.27;2.10;;;11.80;99.90;;;;;;5046403;28;20037;-76
2021/11/23 10:40:28;;;;;;;5.95;1.55;;;11.70;99.90;;;;;;5045894;28;20087;-75
2021/11/23 10:43:04;;;;;;;2.83;1.63;;;11.60;99.90;;;;;;5035330;28;20490;-76
2021/11/23 10:45:39;;;;;;;9.65;2.05;;;11.70;99.90;;;;;;5025785;28;20081;-76
2021/11/23 10:48:09;;;;;;;2.58;1.00;;;12.10;99.90;;;;;;5024199;28;20030;-77
2021/11/23 10:50:36;;;;;;;4.55;1.25;;;12.20;99.90;;;;;;5025809;28;20026;-76
2021/11/23 10:53:13;;;;;;;6.85;1.83;;;12.20;99.90;;;;;;5027426;28;20040;-77
2021/11/23 10:55:42;;;;;;;3.72;1.50;;;12.10;99.90;;;;;;5039915;28;20033;-76
2021/11/23 10:58:10;;;;;;;7.47;1.42;;;11.90;99.90;;;;;;5045054;28;20022;-79
2021/11/23 11:00:40;;;;;;;2.65;0.93;;;12.10;99.90;;;;;;5044781;28;20090;-75
2021/11/23 11:03:09;;;;;;;1.42;0.85;;;12.20;99.90;;;;;;5045048;28;20022;-77
2021/11/23 11:05:41;;;;;;;3.97;1.20;;;12.40;99.90;;;;;;5055602;28;20051;-75
2021/11/23 11:08:09;;;;;;;5.47;1.08;;;12.30;99.90;;;;;;5064731;28;20025;-75
2021/11/23 11:10:37;;;;;;;2.80;1.15;;;12.20;99.90;;;;;;5054088;28;20033;-75
2021/11/23 11:13:09;;;;;;;0.80;0.60;;;12.30;99.90;;;;;;5047167;28;20036;-74
2021/11/23 11:15:44;;;;;;;3.45;0.70;;;12.60;99.90;;;;;;5047573;28;20024;-77
2021/11/23 11:18:13;;;;;;;5.88;0.77;;;12.80;99.90;;;;;;5042180;28;20029;-75
2021/11/23 11:20:58;;;;;;;4.10;0.50;;;12.80;99.90;;;;;;5044517;28;20026;-73
2021/11/23 11:23:26;;;;;;;1.35;0.60;;;12.70;99.90;;;;;;5063222;28;20033;-74
2021/11/23 11:26:23;;;;;;;4.15;1.20;;;12.60;99.90;;;;;;5064301;28;20025;-73
2021/11/23 11:29:01;;;;;;;2.83;0.93;;;12.60;99.90;;;;;;5064464;28;20025;-74
2021/11/23 11:31:45;;;;;;;7.38;0.70;;;12.40;99.90;;;;;;5040505;28;20037;-73
2021/11/23 11:34:23;;;;;;;3.47;0.82;;;12.30;99.90;;;;;;5042467;28;20037;-76
2021/11/23 11:37:12;;;;;;;1.65;1.08;;;12.10;99.90;;;;;;5040288;28;20096;-76
2021/11/23 11:39:58;;;;;;;0.60;0.40;;;12.00;99.90;;;;;;5039454;28;20026;-75
2021/11/23 11:42:25;;;;;;;0.80;0.47;;;11.80;99.90;;;;;;5041473;28;20115;-74
2021/11/23 11:44:53;;;;;;;5.35;0.73;;;11.70;99.90;;;;;;5034788;28;20113;-75
2021/11/23 11:47:32;;;;;;;1.30;0.30;;;11.70;99.90;;;;;;5044189;28;20033;-74
2021/11/23 11:50:05;;;;;;;4.10;0.70;;;11.50;99.90;;;;;;5060219;28;20114;-74
2021/11/23 11:52:57;;;;;;;1.70;0.60;;;11.40;99.90;;;;;;5067073;28;20078;-75
2021/11/23 11:55:37;;;;;;;1.10;0.80;;;11.20;99.90;;;;;;5067031;28;20080;-77
2021/11/23 11:58:06;;;;;;;7.28;0.82;;;11.10;99.90;;;;;;5068324;28;20092;-75
2021/11/23 12:00:40;;;;;;;2.17;0.68;;;10.80;99.90;;;;;;5044474;28;20394;-75
2021/11/23 12:03:15;;;;;;;10.43;1.40;;;10.50;99.90;;;;;;5054020;28;20029;-73
2021/11/23 12:05:47;;;;;;;5.65;1.13;;;10.30;99.90;;;;;;5038799;28;20057;-74
2021/11/23 12:08:33;;;;;;;6.10;2.05;;;10.20;99.90;;;;;;5041331;28;20038;-74
2021/11/23 12:11:04;;;;;;;5.28;1.92;;;10.10;99.90;;;;;;5028433;28;20029;-73
2021/11/23 12:13:39;;;;;;;3.60;1.00;;;10.00;99.90;;;;;;5038083;28;20056;-75
2021/11/23 12:16:32;;;;;;;3.28;0.80;;;10.00;99.90;;;;;;5047955;28;20044;-75
2021/11/23 12:19:37;;;;;;;15.25;0.82;;;10.10;99.90;;;;;;5065068;28;20033;-74
2021/11/23 12:22:05;;;;;;;1.67;0.73;;;10.20;99.90;;;;;;5044163;28;20041;-74
2021/11/23 12:24:40;;;;;;;2.22;0.95;;;10.30;99.90;;;;;;5065088;28;20056;-73
2021/11/23 12:27:11;;;;;;;3.00;1.25;;;10.50;99.90;;;;;;5057579;28;20072;-75
2021/11/23 12:29:55;;;;;;;4.07;0.73;;;10.80;99.90;;;;;;5046686;28;20041;-77
2021/11/23 12:32:33;;;;;;;4.15;0.70;;;11.00;99.90;;;;;;5042419;28;20093;-74
2021/11/23 12:35:00;;;;;;;4.97;1.38;;;11.40;99.90;;;;;;5051640;28;20062;-73
2021/11/23 12:37:39;;;;;;;4.47;1.52;;;11.60;99.90;;;;;;5027933;28;20364;-76
2021/11/23 12:40:14;;;;;;;14.93;3.22;;;11.60;99.90;;;;;;5038818;28;20026;-77
2021/11/23 12:42:50;;;;;;;3.78;1.08;;;11.60;99.90;;;;;;5043739;28;20033;-76
2021/11/23 12:45:16;;;;;;;2.08;0.98;;;11.60;99.90;;;;;;5051234;28;20030;-76
2021/11/23 12:47:42;;;;;;;1.98;0.95;;;11.50;99.90;;;;;;5065703;28;20031;-75
2021/11/23 12:50:09;;;;;;;6.97;1.00;;;11.30;99.90;;;;;;5065825;28;20033;-76
2021/11/23 12:52:36;;;;;;;9.45;2.10;;;11.00;99.90;;;;;;5065623;28;20025;-76
2021/11/23 12:55:03;;;;;;;2.45;1.40;;;10.80;99.90;;;;;;5067007;28;20025;-76
2021/11/23 12:57:30;;;;;;;2.47;1.10;;;10.80;99.90;;;;;;5059397;28;20183;-76
2021/11/23 13:00:07;;;;;;;5.22;0.63;;;10.80;99.90;;;;;;5046903;28;20029;-76
2021/11/23 13:02:43;;;;;;;7.30;0.63;;;10.80;99.90;;;;;;5045975;28;20033;-76